Estación de Azapa medio
Ultimos registro cada 15 minutos 66
| N° | Estación | Fecha / Hora | Temperatura | Humedad | Lluvia | Velocidad | Dirección | Radiación | Presion |
| 66 | Azapa medio | 07-05-2026 16:15 | 21,7 | 58,1 | 0 | 1,5 | 73 | 210 | 968 |
| 65 | Azapa medio | 07-05-2026 16:00 | 21,5 | 58,8 | 0 | 1,6 | 75 | 183 | 968 |
| 64 | Azapa medio | 07-05-2026 15:45 | 21,8 | 58,1 | 0 | 1,4 | 75 | 146 | 969 |
| 63 | Azapa medio | 07-05-2026 15:30 | 22,7 | 55,8 | 0 | 0,3 | 69 | 144 | 969 |
| 62 | Azapa medio | 07-05-2026 15:15 | 23,3 | 54,1 | 0 | 0,6 | 56 | 290 | 969 |
| 61 | Azapa medio | 07-05-2026 15:00 | 23,1 | 52,7 | 0 | 0,4 | 65 | 274 | 969 |
| 60 | Azapa medio | 07-05-2026 14:45 | 23,8 | 52 | 0 | 0,7 | 67 | 264 | 969 |
| 59 | Azapa medio | 07-05-2026 14:30 | 24,8 | 49 | 0 | 0,4 | 322 | 387 | 969 |
| 58 | Azapa medio | 07-05-2026 14:15 | 24,9 | 48 | 0 | 0,3 | 296 | 500 | 969 |
| 57 | Azapa medio | 07-05-2026 14:00 | 24,8 | 46,6 | 0 | 0,4 | 304 | 517 | 969 |
| 56 | Azapa medio | 07-05-2026 13:45 | 24,4 | 48,2 | 0 | 0,6 | 308 | 492 | 970 |
| 55 | Azapa medio | 07-05-2026 13:30 | 24,2 | 49,4 | 0 | 0,6 | 309 | 544 | 970 |
| 54 | Azapa medio | 07-05-2026 13:15 | 24 | 50,5 | 0 | 0,9 | 326 | 481 | 970 |
| 53 | Azapa medio | 07-05-2026 13:00 | 23,9 | 49,7 | 0 | 0,7 | 302 | 530 | 970 |
| 52 | Azapa medio | 07-05-2026 12:45 | 23,8 | 51,5 | 0 | 1 | 310 | 524 | 971 |
| 51 | Azapa medio | 07-05-2026 12:30 | 23,6 | 51,9 | 0 | 0,8 | 65 | 527 | 971 |
| 50 | Azapa medio | 07-05-2026 12:15 | 23,2 | 52,2 | 0 | 1 | 51 | 459 | 971 |
| 49 | Azapa medio | 07-05-2026 12:00 | 23 | 52,7 | 0 | 0,8 | 54 | 400 | 971 |
| 48 | Azapa medio | 07-05-2026 11:45 | 22,8 | 52,1 | 0 | 0,3 | 48 | 474 | 972 |
| 47 | Azapa medio | 07-05-2026 11:30 | 22,3 | 54,9 | 0 | 1,1 | 51 | 481 | 972 |
| 46 | Azapa medio | 07-05-2026 11:15 | 22,1 | 55,3 | 0 | 0,4 | 44 | 438 | 972 |
| 45 | Azapa medio | 07-05-2026 11:00 | 21,8 | 55,8 | 0 | 0,8 | 36 | 446 | 972 |
| 44 | Azapa medio | 07-05-2026 10:45 | 21,5 | 58 | 0 | 0,4 | 35 | 301 | 972 |
| 43 | Azapa medio | 07-05-2026 10:30 | 21,3 | 58,2 | 0 | 1,3 | 55 | 307 | 972 |
| 42 | Azapa medio | 07-05-2026 10:15 | 20,6 | 60,4 | 0 | 1,1 | 63 | 205 | 972 |
| 41 | Azapa medio | 07-05-2026 10:00 | 19,9 | 63,2 | 0 | 0,8 | 60 | 172 | 972 |
| 40 | Azapa medio | 07-05-2026 09:45 | 19,2 | 66,3 | 0 | 0,6 | 53 | 180 | 972 |
| 39 | Azapa medio | 07-05-2026 09:30 | 18,8 | 68,6 | 0 | 0,3 | 30 | 149 | 972 |
| 38 | Azapa medio | 07-05-2026 09:15 | 18,4 | 73 | 0 | 0,1 | 25 | 123 | 972 |
| 37 | Azapa medio | 07-05-2026 09:00 | 17,9 | 74,3 | 0 | 0,4 | 23 | 126 | 972 |
| 36 | Azapa medio | 07-05-2026 08:45 | 16,7 | 77,9 | 0 | 1 | 22 | 116 | 972 |
| 35 | Azapa medio | 07-05-2026 08:30 | 15,6 | 81,6 | 0 | 1,2 | 21 | 91 | 972 |
| 34 | Azapa medio | 07-05-2026 08:15 | 14,5 | 85,3 | 0 | 0,6 | 21 | 80 | 972 |
| 33 | Azapa medio | 07-05-2026 08:00 | 13,3 | 87,3 | 0 | 0,2 | 22 | 38 | 972 |
| 32 | Azapa medio | 07-05-2026 07:45 | 12,5 | 87,3 | 0 | 0,2 | 21 | 19 | 972 |
| 31 | Azapa medio | 07-05-2026 07:30 | 12,2 | 87 | 0 | 0,4 | 20 | 9 | 971 |
| 30 | Azapa medio | 07-05-2026 07:15 | 12,1 | 86,9 | 0 | 0,4 | 20 | 2 | 971 |
| 29 | Azapa medio | 07-05-2026 07:00 | 12,1 | 86,9 | 0 | 0,4 | 20 | 0 | 971 |
| 28 | Azapa medio | 07-05-2026 06:45 | 12,2 | 86,7 | 0 | 0,3 | 20 | 0 | 971 |
| 27 | Azapa medio | 07-05-2026 06:30 | 12,2 | 87 | 0 | 0,1 | 20 | 0 | 970 |
| 26 | Azapa medio | 07-05-2026 06:15 | 12,4 | 86,7 | 0 | 0,2 | 20 | 0 | 970 |
| 25 | Azapa medio | 07-05-2026 06:00 | 12,6 | 86,6 | 0 | 0,4 | 20 | 0 | 970 |
| 24 | Azapa medio | 07-05-2026 05:45 | 12,5 | 86,9 | 0 | 0,5 | 20 | 0 | 970 |
| 23 | Azapa medio | 07-05-2026 05:30 | 12,6 | 86,8 | 0 | 0,6 | 20 | 0 | 970 |
| 22 | Azapa medio | 07-05-2026 05:15 | 12,6 | 86,4 | 0 | 0,2 | 20 | 0 | 970 |
| 21 | Azapa medio | 07-05-2026 05:00 | 12,6 | 87 | 0 | 0,1 | 20 | 0 | 970 |
| 20 | Azapa medio | 07-05-2026 04:45 | 12,6 | 87 | 0 | 0 | 0 | 0 | 970 |
| 19 | Azapa medio | 07-05-2026 04:30 | 12,7 | 86,7 | 0 | 0 | 20 | 0 | 970 |
| 18 | Azapa medio | 07-05-2026 04:15 | 12,7 | 86,9 | 0 | 0,2 | 20 | 0 | 971 |
| 17 | Azapa medio | 07-05-2026 04:00 | 12,7 | 87 | 0 | 0,1 | 20 | 0 | 971 |
| 16 | Azapa medio | 07-05-2026 03:45 | 12,7 | 86,9 | 0 | 0,2 | 20 | 0 | 971 |
| 15 | Azapa medio | 07-05-2026 03:30 | 12,6 | 86,9 | 0 | 0,3 | 20 | 0 | 971 |
| 14 | Azapa medio | 07-05-2026 03:15 | 12,6 | 86,7 | 0 | 0,1 | 20 | 0 | 971 |
| 13 | Azapa medio | 07-05-2026 03:00 | 12,6 | 86,8 | 0 | 0,4 | 20 | 0 | 971 |
| 12 | Azapa medio | 07-05-2026 02:45 | 12,5 | 86,4 | 0 | 0 | 20 | 0 | 971 |
| 11 | Azapa medio | 07-05-2026 02:30 | 12,4 | 86,3 | 0 | 0 | 0 | 0 | 971 |
| 10 | Azapa medio | 07-05-2026 02:15 | 12,5 | 86,1 | 0 | 0,1 | 20 | 0 | 971 |
| 9 | Azapa medio | 07-05-2026 02:00 | 12,7 | 85,8 | 0 | 0 | 0 | 0 | 971 |
| 8 | Azapa medio | 07-05-2026 01:45 | 12,9 | 86,1 | 0 | 0 | 0 | 0 | 971 |
| 7 | Azapa medio | 07-05-2026 01:30 | 13,1 | 86 | 0 | 0 | 20 | 0 | 971 |
| 6 | Azapa medio | 07-05-2026 01:15 | 13,3 | 86,1 | 0 | 0,1 | 19 | 0 | 971 |
| 5 | Azapa medio | 07-05-2026 01:00 | 13,3 | 86,1 | 0 | 0,2 | 19 | 0 | 972 |
| 4 | Azapa medio | 07-05-2026 00:45 | 13,4 | 85,7 | 0 | 0 | 19 | 0 | 972 |
| 3 | Azapa medio | 07-05-2026 00:30 | 13,4 | 85,8 | 0 | 0 | 19 | 0 | 972 |
| 2 | Azapa medio | 07-05-2026 00:15 | 13,4 | 85,7 | 0 | 0,2 | 19 | 0 | 972 |
| 1 | Azapa medio | 07-05-2026 00:00 | 13,4 | 85 | 0 | 0 | 0 | 0 | 971 |